Estación Meteorológica Peña el Pijo (Robertgarden) [ 02/03/23 03:22:32 CET ]

Fecha Hora Presion(HPa) Temp (°C) Humedad % Rocio (°C) Viento ( m/s) Direccion Lluvia 1Hora(mm) Lluvia 24H(mm) LLuvia Total(mm)
2012-Sep-26 01:01:18 1002.700 13.3 60 5.7         178.19
2012-Sep-26 02:01:15 1002.700 13.5 62 6.3 1.4 ENE     178.19
2012-Sep-26 03:01:45 1002.300 12.9 64 6.2 1.3 SSW     178.19
2012-Sep-26 04:03:23 1001.800 12.4 65 6.0         178.19
2012-Sep-26 05:01:16 1001.600 12.1 63 5.2         178.19
2012-Sep-26 06:01:12 1001.500 12.2 62 5.1         178.19
2012-Sep-26 07:01:13 1001.300 11.9 63 5.1         178.19
2012-Sep-26 08:01:17 1001.400 11.8 62 4.7         178.19
2012-Sep-26 09:01:12 1001.500 11.7 60 4.2 0.9 SW     178.19
2012-Sep-26 10:01:14 1001.900 13.9 61 6.5 0.7 NW     178.19
2012-Sep-26 11:01:18 1001.900 17.6 48 6.4         178.19
2012-Sep-26 12:01:13 1002.700 19.0 48 7.7 1.2 ENE     178.19
2012-Sep-26 13:01:18 1002.600 20.4 43 7.3 1.8 NNE     178.19
2012-Sep-26 14:01:14 1003.100 20.8 44 8.0         178.19
2012-Sep-26 15:01:13 1003.500 17.5 53 7.8         178.19
2012-Sep-26 16:01:16 1003.600 16.2 60 8.5         178.19
2012-Sep-26 17:01:22 1004.000 15.3 63 8.3 0.9 W     178.19
2012-Sep-26 18:01:17 1003.700 15.2 61 7.7 2.1 SSW     178.19
2012-Sep-26 19:01:17 1003.900 15.2 60 7.5         178.19
2012-Sep-26 20:01:14 1004.100 14.7 61 7.2         178.19
2012-Sep-26 21:01:13 1004.400 13.9 66 7.6         178.19
2012-Sep-26 22:01:16 1005.400 13.4 68 7.6         178.19
2012-Sep-26 23:01:14 1005.700 13.0 69 7.5         178.19

Temperatura Máxima:20°    Temperatura Mínima:11°
Presión Máxima:1005.700 Hpa    Presión Mínima:1001.300 Hpa


Volver